sensor_id;sensor_type;location;lat;lon;timestamp;pressure;altitude;pressure_sealevel;temperature;humidity
18858;BME280;9558;50.178;8.370;2024-01-30T00:00:34;99514.03;;;1.52;100.00
18858;BME280;9558;50.178;8.370;2024-01-30T00:03:21;99514.78;;;1.54;100.00
18858;BME280;9558;50.178;8.370;2024-01-30T00:06:08;99514.88;;;1.53;100.00
18858;BME280;9558;50.178;8.370;2024-01-30T00:08:54;99514.03;;;1.52;100.00
18858;BME280;9558;50.178;8.370;2024-01-30T00:11:42;99514.19;;;1.49;100.00
18858;BME280;9558;50.178;8.370;2024-01-30T00:14:29;99511.25;;;1.41;100.00
18858;BME280;9558;50.178;8.370;2024-01-30T00:17:16;99510.59;;;1.37;100.00
18858;BME280;9558;50.178;8.370;2024-01-30T00:20:04;99514.03;;;1.36;100.00
18858;BME280;9558;50.178;8.370;2024-01-30T00:22:51;99515.88;;;1.34;100.00
18858;BME280;9558;50.178;8.370;2024-01-30T00:25:38;99514.13;;;1.35;100.00
18858;BME280;9558;50.178;8.370;2024-01-30T00:28:26;99516.69;;;1.35;100.00
18858;BME280;9558;50.178;8.370;2024-01-30T00:31:13;99518.34;;;1.36;100.00
18858;BME280;9558;50.178;8.370;2024-01-30T00:34:00;99509.84;;;1.35;100.00
18858;BME280;9558;50.178;8.370;2024-01-30T00:36:47;99506.72;;;1.30;100.00
18858;BME280;9558;50.178;8.370;2024-01-30T00:39:33;99513.53;;;1.30;100.00
18858;BME280;9558;50.178;8.370;2024-01-30T00:42:20;99515.19;;;1.31;100.00
18858;BME280;9558;50.178;8.370;2024-01-30T00:45:13;99511.16;;;1.27;100.00
18858;BME280;9558;50.178;8.370;2024-01-30T00:48:00;99506.06;;;1.27;100.00
18858;BME280;9558;50.178;8.370;2024-01-30T00:50:47;99510.28;;;1.28;100.00
18858;BME280;9558;50.178;8.370;2024-01-30T00:53:34;99517.16;;;1.26;100.00
18858;BME280;9558;50.178;8.370;2024-01-30T00:56:20;99518.97;;;1.24;100.00
18858;BME280;9558;50.178;8.370;2024-01-30T00:59:07;99518.16;;;1.23;100.00
18858;BME280;9558;50.178;8.370;2024-01-30T01:01:55;99520.13;;;1.18;100.00
18858;BME280;9558;50.178;8.370;2024-01-30T01:04:42;99516.00;;;1.15;100.00
18858;BME280;9558;50.178;8.370;2024-01-30T01:07:29;99517.75;;;1.15;100.00
18858;BME280;9558;50.178;8.370;2024-01-30T01:10:16;99516.84;;;1.16;100.00
18858;BME280;9558;50.178;8.370;2024-01-30T01:13:03;99518.56;;;1.15;100.00
18858;BME280;9558;50.178;8.370;2024-01-30T01:15:50;99517.00;;;1.13;100.00
18858;BME280;9558;50.178;8.370;2024-01-30T01:18:38;99521.44;;;1.09;100.00
18858;BME280;9558;50.178;8.370;2024-01-30T01:21:25;99519.78;;;1.08;100.00
18858;BME280;9558;50.178;8.370;2024-01-30T01:24:12;99518.97;;;1.08;100.00
18858;BME280;9558;50.178;8.370;2024-01-30T01:26:59;99514.53;;;1.11;100.00
18858;BME280;9558;50.178;8.370;2024-01-30T01:29:46;99517.34;;;1.07;100.00
18858;BME280;9558;50.178;8.370;2024-01-30T01:32:33;99516.50;;;1.06;100.00
18858;BME280;9558;50.178;8.370;2024-01-30T01:35:21;99508.09;;;1.04;100.00
18858;BME280;9558;50.178;8.370;2024-01-30T01:38:08;99505.47;;;1.06;100.00
18858;BME280;9558;50.178;8.370;2024-01-30T01:40:55;99498.09;;;1.01;100.00
18858;BME280;9558;50.178;8.370;2024-01-30T01:43:41;99500.63;;;1.01;100.00
18858;BME280;9558;50.178;8.370;2024-01-30T01:46:30;99499.72;;;1.02;100.00
18858;BME280;9558;50.178;8.370;2024-01-30T01:49:19;99504.84;;;1.02;100.00
18858;BME280;9558;50.178;8.370;2024-01-30T01:52:07;99503.78;;;1.06;100.00
18858;BME280;9558;50.178;8.370;2024-01-30T01:54:55;99499.72;;;1.02;100.00
18858;BME280;9558;50.178;8.370;2024-01-30T01:57:41;99503.00;;;1.04;100.00
18858;BME280;9558;50.178;8.370;2024-01-30T02:00:28;99499.72;;;1.02;100.00
18858;BME280;9558;50.178;8.370;2024-01-30T02:03:17;99491.31;;;1.00;100.00
18858;BME280;9558;50.178;8.370;2024-01-30T02:06:06;99493.78;;;1.01;100.00
18858;BME280;9558;50.178;8.370;2024-01-30T02:08:55;99492.97;;;1.01;100.00
18858;BME280;9558;50.178;8.370;2024-01-30T02:11:42;99483.59;;;1.01;100.00
18858;BME280;9558;50.178;8.370;2024-01-30T02:14:28;99494.56;;;1.03;100.00
18858;BME280;9558;50.178;8.370;2024-01-30T02:17:16;99490.44;;;1.01;100.00
18858;BME280;9558;50.178;8.370;2024-01-30T02:20:03;99486.22;;;1.00;100.00
18858;BME280;9558;50.178;8.370;2024-01-30T02:22:52;99491.50;;;0.97;100.00
18858;BME280;9558;50.178;8.370;2024-01-30T02:25:41;99480.50;;;0.96;100.00
18858;BME280;9558;50.178;8.370;2024-01-30T02:28:29;99488.22;;;0.95;100.00
18858;BME280;9558;50.178;8.370;2024-01-30T02:31:16;99483.28;;;0.92;100.00
18858;BME280;9558;50.178;8.370;2024-01-30T02:34:03;99483.38;;;0.90;100.00
18858;BME280;9558;50.178;8.370;2024-01-30T02:36:50;99483.28;;;0.92;100.00
18858;BME280;9558;50.178;8.370;2024-01-30T02:39:38;99488.31;;;0.93;100.00
18858;BME280;9558;50.178;8.370;2024-01-30T02:42:25;99487.47;;;0.93;100.00
18858;BME280;9558;50.178;8.370;2024-01-30T02:45:12;99489.13;;;0.94;100.00
18858;BME280;9558;50.178;8.370;2024-01-30T02:47:59;99487.47;;;0.93;100.00
18858;BME280;9558;50.178;8.370;2024-01-30T02:50:46;99490.00;;;0.93;100.00
18858;BME280;9558;50.178;8.370;2024-01-30T02:53:33;99482.28;;;0.94;100.00
18858;BME280;9558;50.178;8.370;2024-01-30T02:56:21;99485.66;;;0.95;100.00
18858;BME280;9558;50.178;8.370;2024-01-30T02:59:08;99480.56;;;0.95;100.00
18858;BME280;9558;50.178;8.370;2024-01-30T03:01:55;99478.91;;;0.94;100.00
18858;BME280;9558;50.178;8.370;2024-01-30T03:04:42;99478.31;;;0.89;100.00
18858;BME280;9558;50.178;8.370;2024-01-30T03:07:28;99475.78;;;0.89;100.00
18858;BME280;9558;50.178;8.370;2024-01-30T03:10:15;99473.22;;;0.89;100.00
18858;BME280;9558;50.178;8.370;2024-01-30T03:13:03;99470.69;;;0.89;100.00
18858;BME280;9558;50.178;8.370;2024-01-30T03:15:50;99474.88;;;0.90;100.00
18858;BME280;9558;50.178;8.370;2024-01-30T03:18:37;99470.63;;;0.90;100.00
18858;BME280;9558;50.178;8.370;2024-01-30T03:21:24;99471.44;;;0.91;100.00
18858;BME280;9558;50.178;8.370;2024-01-30T03:24:10;99472.50;;;0.86;100.00
18858;BME280;9558;50.178;8.370;2024-01-30T03:26:57;99474.06;;;0.89;100.00
18858;BME280;9558;50.178;8.370;2024-01-30T03:29:45;99473.22;;;0.89;100.00
18858;BME280;9558;50.178;8.370;2024-01-30T03:32:32;99475.06;;;0.86;100.00
18858;BME280;9558;50.178;8.370;2024-01-30T03:35:19;99478.50;;;0.85;100.00
18858;BME280;9558;50.178;8.370;2024-01-30T03:38:06;99475.22;;;0.83;100.00
18858;BME280;9558;50.178;8.370;2024-01-30T03:40:52;99480.31;;;0.83;100.00
18858;BME280;9558;50.178;8.370;2024-01-30T03:43:40;99479.50;;;0.83;100.00
18858;BME280;9558;50.178;8.370;2024-01-30T03:46:28;99471.78;;;0.84;100.00
18858;BME280;9558;50.178;8.370;2024-01-30T03:49:15;99469.44;;;0.80;100.00
18858;BME280;9558;50.178;8.370;2024-01-30T03:52:02;99473.72;;;0.79;100.00
18858;BME280;9558;50.178;8.370;2024-01-30T03:54:49;99473.72;;;0.79;100.00
18858;BME280;9558;50.178;8.370;2024-01-30T03:57:36;99463.53;;;0.79;100.00
18858;BME280;9558;50.178;8.370;2024-01-30T04:00:23;99466.00;;;0.81;100.00
18858;BME280;9558;50.178;8.370;2024-01-30T04:03:11;99466.81;;;0.81;100.00
18858;BME280;9558;50.178;8.370;2024-01-30T04:05:58;99464.34;;;0.80;100.00
18858;BME280;9558;50.178;8.370;2024-01-30T04:08:44;99468.63;;;0.79;100.00
18858;BME280;9558;50.178;8.370;2024-01-30T04:11:31;99466.34;;;0.75;100.00
18858;BME280;9558;50.178;8.370;2024-01-30T04:14:18;99469.69;;;0.75;100.00
18858;BME280;9558;50.178;8.370;2024-01-30T04:17:05;99465.50;;;0.74;100.00
18858;BME280;9558;50.178;8.370;2024-01-30T04:19:53;99470.59;;;0.74;100.00
18858;BME280;9558;50.178;8.370;2024-01-30T04:22:40;99470.75;;;0.71;100.00
18858;BME280;9558;50.178;8.370;2024-01-30T04:25:27;99462.38;;;0.69;100.00
18858;BME280;9558;50.178;8.370;2024-01-30T04:28:14;99464.94;;;0.69;100.00
18858;BME280;9558;50.178;8.370;2024-01-30T04:31:00;99462.38;;;0.69;100.00
18858;BME280;9558;50.178;8.370;2024-01-30T04:33:47;99459.06;;;0.67;100.00
18858;BME280;9558;50.178;8.370;2024-01-30T04:36:35;99465.97;;;0.65;100.00
18858;BME280;9558;50.178;8.370;2024-01-30T04:39:22;99456.69;;;0.64;100.00
18858;BME280;9558;50.178;8.370;2024-01-30T04:42:09;99459.41;;;0.61;100.00
18858;BME280;9558;50.178;8.370;2024-01-30T04:44:56;99456.78;;;0.62;100.00
18858;BME280;9558;50.178;8.370;2024-01-30T04:47:42;99458.59;;;0.60;100.00
18858;BME280;9558;50.178;8.370;2024-01-30T04:50:29;99451.94;;;0.58;100.00
18858;BME280;9558;50.178;8.370;2024-01-30T04:53:17;99458.06;;;0.54;100.00
18858;BME280;9558;50.178;8.370;2024-01-30T04:56:05;99459.88;;;0.51;100.00
18858;BME280;9558;50.178;8.370;2024-01-30T04:58:52;99462.44;;;0.51;100.00
18858;BME280;9558;50.178;8.370;2024-01-30T05:01:39;99461.69;;;0.49;100.00
18858;BME280;9558;50.178;8.370;2024-01-30T05:04:25;99463.50;;;0.47;100.00
18858;BME280;9558;50.178;8.370;2024-01-30T05:07:12;99460.19;;;0.45;100.00
18858;BME280;9558;50.178;8.370;2024-01-30T05:10:00;99469.66;;;0.43;100.00
18858;BME280;9558;50.178;8.370;2024-01-30T05:12:47;99465.44;;;0.42;100.00
18858;BME280;9558;50.178;8.370;2024-01-30T05:15:34;99468.00;;;0.42;100.00
18858;BME280;9558;50.178;8.370;2024-01-30T05:18:21;99469.72;;;0.42;100.00
18858;BME280;9558;50.178;8.370;2024-01-30T05:21:07;99473.09;;;0.42;100.00
18858;BME280;9558;50.178;8.370;2024-01-30T05:23:54;99471.34;;;0.43;100.00
18858;BME280;9558;50.178;8.370;2024-01-30T05:26:42;99472.28;;;0.42;100.00
18858;BME280;9558;50.178;8.370;2024-01-30T05:29:29;99475.63;;;0.42;100.00
18858;BME280;9558;50.178;8.370;2024-01-30T05:32:16;99473.09;;;0.42;100.00
18858;BME280;9558;50.178;8.370;2024-01-30T05:35:03;99473.16;;;0.41;100.00
18858;BME280;9558;50.178;8.370;2024-01-30T05:37:50;99473.97;;;0.41;100.00
18858;BME280;9558;50.178;8.370;2024-01-30T05:40:37;99476.53;;;0.41;100.00
18858;BME280;9558;50.178;8.370;2024-01-30T05:43:25;99476.44;;;0.43;100.00
18858;BME280;9558;50.178;8.370;2024-01-30T05:46:12;99480.88;;;0.39;100.00
18858;BME280;9558;50.178;8.370;2024-01-30T05:48:59;99476.69;;;0.38;100.00
18858;BME280;9558;50.178;8.370;2024-01-30T05:51:46;99480.00;;;0.40;100.00
18858;BME280;9558;50.178;8.370;2024-01-30T05:54:32;99472.47;;;0.37;100.00
18858;BME280;9558;50.178;8.370;2024-01-30T05:57:19;99476.75;;;0.37;100.00
18858;BME280;9558;50.178;8.370;2024-01-30T06:00:08;99474.28;;;0.35;100.00
18858;BME280;9558;50.178;8.370;2024-01-30T06:02:55;99479.38;;;0.35;100.00
18858;BME280;9558;50.178;8.370;2024-01-30T06:05:42;99476.09;;;0.33;100.00
18858;BME280;9558;50.178;8.370;2024-01-30T06:08:28;99484.63;;;0.32;100.00
18858;BME280;9558;50.178;8.370;2024-01-30T06:11:15;99481.31;;;0.30;100.00
18858;BME280;9558;50.178;8.370;2024-01-30T06:14:02;99488.16;;;0.29;100.00
18858;BME280;9558;50.178;8.370;2024-01-30T06:16:50;99483.16;;;0.28;100.00
18858;BME280;9558;50.178;8.370;2024-01-30T06:19:37;99486.59;;;0.27;100.00
18858;BME280;9558;50.178;8.370;2024-01-30T06:22:24;99485.84;;;0.25;100.00
18858;BME280;9558;50.178;8.370;2024-01-30T06:25:11;99490.34;;;0.20;100.00
18858;BME280;9558;50.178;8.370;2024-01-30T06:27:57;99487.94;;;0.16;100.00
18858;BME280;9558;50.178;8.370;2024-01-30T06:30:44;99488.84;;;0.15;100.00
18858;BME280;9558;50.178;8.370;2024-01-30T06:33:32;99486.53;;;0.11;100.00
18858;BME280;9558;50.178;8.370;2024-01-30T06:36:19;99483.31;;;0.07;100.00
18858;BME280;9558;50.178;8.370;2024-01-30T06:38:51;99482.56;;;0.05;100.00
18858;BME280;9558;50.178;8.370;2024-01-30T06:41:38;99482.56;;;0.05;100.00
18858;BME280;9558;50.178;8.370;2024-01-30T06:44:25;99490.28;;;0.04;100.00
18858;BME280;9558;50.178;8.370;2024-01-30T06:47:12;99490.34;;;0.02;100.00
18858;BME280;9558;50.178;8.370;2024-01-30T06:50:00;99494.56;;;0.03;100.00
18858;BME280;9558;50.178;8.370;2024-01-30T06:52:47;99497.09;;;0.03;100.00
18858;BME280;9558;50.178;8.370;2024-01-30T06:55:34;99487.66;;;0.05;100.00
18858;BME280;9558;50.178;8.370;2024-01-30T06:58:21;99491.09;;;0.04;100.00
18858;BME280;9558;50.178;8.370;2024-01-30T07:01:07;99492.81;;;0.04;100.00
18858;BME280;9558;50.178;8.370;2024-01-30T07:03:55;99503.75;;;0.06;100.00
18858;BME280;9558;50.178;8.370;2024-01-30T07:06:43;99488.53;;;0.04;100.00
18858;BME280;9558;50.178;8.370;2024-01-30T07:09:30;99491.94;;;0.05;100.00
18858;BME280;9558;50.178;8.370;2024-01-30T07:12:17;99486.84;;;0.05;100.00
18858;BME280;9558;50.178;8.370;2024-01-30T07:15:05;99487.50;;;0.08;100.00
18858;BME280;9558;50.178;8.370;2024-01-30T07:17:55;99490.97;;;0.07;100.00
18858;BME280;9558;50.178;8.370;2024-01-30T07:20:42;99489.06;;;0.11;100.00
18858;BME280;9558;50.178;8.370;2024-01-30T07:23:33;99495.75;;;0.13;100.00
18858;BME280;9558;50.178;8.370;2024-01-30T07:26:20;99501.66;;;0.14;100.00
18858;BME280;9558;50.178;8.370;2024-01-30T07:29:07;99500.75;;;0.15;100.00
18858;BME280;9558;50.178;8.370;2024-01-30T07:31:54;99502.25;;;0.19;100.00
18858;BME280;9558;50.178;8.370;2024-01-30T07:34:41;99498.59;;;0.25;100.00
18858;BME280;9558;50.178;8.370;2024-01-30T07:37:28;99484.63;;;0.32;100.00
18858;BME280;9558;50.178;8.370;2024-01-30T07:40:17;99493.69;;;0.38;100.00
18858;BME280;9558;50.178;8.370;2024-01-30T07:43:04;99490.91;;;0.42;100.00
18858;BME280;9558;50.178;8.370;2024-01-30T07:45:50;99491.34;;;0.50;100.00
18858;BME280;9558;50.178;8.370;2024-01-30T07:48:37;99496.19;;;0.55;100.00
18858;BME280;9558;50.178;8.370;2024-01-30T07:51:24;99506.00;;;0.63;100.00
18858;BME280;9558;50.178;8.370;2024-01-30T07:54:11;99504.94;;;0.67;100.00
18858;BME280;9558;50.178;8.370;2024-01-30T07:57:00;99506.41;;;0.71;100.00
18858;BME280;9558;50.178;8.370;2024-01-30T07:59:53;99507.75;;;0.78;100.00
18858;BME280;9558;50.178;8.370;2024-01-30T08:02:44;99508.50;;;0.80;100.00
18858;BME280;9558;50.178;8.370;2024-01-30T08:05:52;99516.50;;;0.90;100.00
18858;BME280;9558;50.178;8.370;2024-01-30T08:08:39;99518.72;;;0.96;100.00
18858;BME280;9558;50.178;8.370;2024-01-30T08:11:26;99520.13;;;1.02;100.00
18858;BME280;9558;50.178;8.370;2024-01-30T08:14:16;99522.09;;;1.13;100.00
18858;BME280;9558;50.178;8.370;2024-01-30T08:17:06;99520.72;;;1.23;100.00
18858;BME280;9558;50.178;8.370;2024-01-30T08:19:53;99518.47;;;1.33;100.00
18858;BME280;9558;50.178;8.370;2024-01-30T08:22:40;99517.66;;;1.48;100.00
18858;BME280;9558;50.178;8.370;2024-01-30T08:25:27;99511.88;;;1.61;100.00
18858;BME280;9558;50.178;8.370;2024-01-30T08:28:14;99511.94;;;1.75;100.00
18858;BME280;9558;50.178;8.370;2024-01-30T08:31:02;99518.38;;;1.97;100.00
18858;BME280;9558;50.178;8.370;2024-01-30T08:33:49;99513.88;;;2.16;100.00
18858;BME280;9558;50.178;8.370;2024-01-30T08:36:36;99514.47;;;2.36;100.00
18858;BME280;9558;50.178;8.370;2024-01-30T08:39:23;99518.50;;;2.54;100.00
18858;BME280;9558;50.178;8.370;2024-01-30T08:42:10;99525.53;;;2.65;100.00
18858;BME280;9558;50.178;8.370;2024-01-30T08:44:57;99520.50;;;2.78;100.00
18858;BME280;9558;50.178;8.370;2024-01-30T08:47:45;99516.47;;;2.88;100.00
18858;BME280;9558;50.178;8.370;2024-01-30T08:50:32;99521.34;;;2.93;100.00
18858;BME280;9558;50.178;8.370;2024-01-30T08:53:20;99521.16;;;2.96;100.00
18858;BME280;9558;50.178;8.370;2024-01-30T08:56:07;99519.41;;;2.97;100.00
18858;BME280;9558;50.178;8.370;2024-01-30T08:58:53;99511.53;;;3.00;100.00
18858;BME280;9558;50.178;8.370;2024-01-30T09:01:40;99507.88;;;3.04;100.00
18858;BME280;9558;50.178;8.370;2024-01-30T09:04:28;99514.09;;;3.00;100.00
18858;BME280;9558;50.178;8.370;2024-01-30T09:07:15;99518.66;;;3.09;100.00
18858;BME280;9558;50.178;8.370;2024-01-30T09:10:02;99525.69;;;3.05;100.00
18858;BME280;9558;50.178;8.370;2024-01-30T09:12:50;99529.09;;;3.06;100.00
18858;BME280;9558;50.178;8.370;2024-01-30T09:15:36;99526.66;;;3.17;100.00
18858;BME280;9558;50.178;8.370;2024-01-30T09:18:23;99532.34;;;3.22;100.00
18858;BME280;9558;50.178;8.370;2024-01-30T09:21:11;99531.63;;;3.20;100.00
18858;BME280;9558;50.178;8.370;2024-01-30T09:24:01;99529.38;;;3.28;100.00
18858;BME280;9558;50.178;8.370;2024-01-30T09:26:49;99532.03;;;3.27;100.00
18858;BME280;9558;50.178;8.370;2024-01-30T09:29:35;99527.81;;;3.40;100.00
18858;BME280;9558;50.178;8.370;2024-01-30T09:32:22;99526.44;;;3.49;100.00
18858;BME280;9558;50.178;8.370;2024-01-30T09:35:09;99536.41;;;3.67;100.00
18858;BME280;9558;50.178;8.370;2024-01-30T09:37:59;99535.25;;;3.85;100.00
18858;BME280;9558;50.178;8.370;2024-01-30T09:40:53;99536.19;;;3.97;100.00
18858;BME280;9558;50.178;8.370;2024-01-30T09:43:41;99543.00;;;4.11;100.00
18858;BME280;9558;50.178;8.370;2024-01-30T09:46:33;99542.81;;;4.27;100.00
18858;BME280;9558;50.178;8.370;2024-01-30T09:49:22;99532.56;;;4.40;100.00
18858;BME280;9558;50.178;8.370;2024-01-30T09:52:10;99536.69;;;4.55;100.00
18858;BME280;9558;50.178;8.370;2024-01-30T09:55:00;99542.22;;;4.75;100.00
18858;BME280;9558;50.178;8.370;2024-01-30T09:57:48;99537.06;;;4.88;100.00
18858;BME280;9558;50.178;8.370;2024-01-30T10:00:34;99534.88;;;4.94;100.00
18858;BME280;9558;50.178;8.370;2024-01-30T10:03:21;99538.28;;;5.08;100.00
18858;BME280;9558;50.178;8.370;2024-01-30T10:06:08;99551.91;;;5.08;100.00
18858;BME280;9558;50.178;8.370;2024-01-30T10:08:56;99534.66;;;5.23;100.00
18858;BME280;9558;50.178;8.370;2024-01-30T10:11:44;99538.22;;;5.33;100.00
18858;BME280;9558;50.178;8.370;2024-01-30T10:14:31;99534.06;;;5.44;100.00
18858;BME280;9558;50.178;8.370;2024-01-30T10:17:18;99536.06;;;5.51;100.00
18858;BME280;9558;50.178;8.370;2024-01-30T10:20:07;99529.69;;;5.57;100.00
18858;BME280;9558;50.178;8.370;2024-01-30T10:22:54;99529.03;;;5.66;100.00
18858;BME280;9558;50.178;8.370;2024-01-30T10:25:41;99526.53;;;5.78;100.00
18858;BME280;9558;50.178;8.370;2024-01-30T10:28:29;99528.63;;;5.84;100.00
18858;BME280;9558;50.178;8.370;2024-01-30T10:31:17;99515.94;;;5.94;100.00
18858;BME280;9558;50.178;8.370;2024-01-30T10:34:04;99523.97;;;6.02;100.00
18858;BME280;9558;50.178;8.370;2024-01-30T10:36:59;99517.31;;;6.11;100.00
18858;BME280;9558;50.178;8.370;2024-01-30T10:39:46;99518.84;;;6.13;100.00
18858;BME280;9558;50.178;8.370;2024-01-30T10:42:36;99534.41;;;6.23;100.00
18858;BME280;9558;50.178;8.370;2024-01-30T10:45:26;99536.53;;;6.29;100.00
18858;BME280;9558;50.178;8.370;2024-01-30T10:48:18;99541.81;;;6.39;100.00
18858;BME280;9558;50.178;8.370;2024-01-30T10:51:07;99532.81;;;6.45;100.00
18858;BME280;9558;50.178;8.370;2024-01-30T10:53:56;99537.97;;;6.45;100.00
18858;BME280;9558;50.178;8.370;2024-01-30T10:56:42;99537.00;;;6.46;100.00
18858;BME280;9558;50.178;8.370;2024-01-30T10:59:30;99534.91;;;6.51;100.00
18858;BME280;9558;50.178;8.370;2024-01-30T11:02:19;99537.03;;;6.57;100.00
18858;BME280;9558;50.178;8.370;2024-01-30T11:05:07;99537.75;;;6.59;100.00
18858;BME280;9558;50.178;8.370;2024-01-30T11:07:54;99537.28;;;6.65;100.00
18858;BME280;9558;50.178;8.370;2024-01-30T11:10:45;99547.19;;;6.70;100.00
18858;BME280;9558;50.178;8.370;2024-01-30T11:13:32;99540.22;;;6.72;100.00
18858;BME280;9558;50.178;8.370;2024-01-30T11:16:19;99541.50;;;6.78;100.00
18858;BME280;9558;50.178;8.370;2024-01-30T11:19:13;99537.97;;;6.79;100.00
18858;BME280;9558;50.178;8.370;2024-01-30T11:21:59;99539.38;;;6.83;100.00
18858;BME280;9558;50.178;8.370;2024-01-30T11:24:46;99529.91;;;6.83;100.00
18858;BME280;9558;50.178;8.370;2024-01-30T11:27:33;99538.69;;;6.92;100.00
18858;BME280;9558;50.178;8.370;2024-01-30T11:30:22;99533.88;;;6.99;100.00
18858;BME280;9558;50.178;8.370;2024-01-30T11:33:10;99522.28;;;7.04;100.00
18858;BME280;9558;50.178;8.370;2024-01-30T11:35:59;99519.94;;;7.13;100.00
18858;BME280;9558;50.178;8.370;2024-01-30T11:38:46;99514.41;;;7.17;100.00
18858;BME280;9558;50.178;8.370;2024-01-30T11:41:34;99514.31;;;7.19;100.00
18858;BME280;9558;50.178;8.370;2024-01-30T11:44:21;99517.34;;;7.24;100.00
18858;BME280;9558;50.178;8.370;2024-01-30T11:47:08;99516.63;;;7.33;100.00
18858;BME280;9558;50.178;8.370;2024-01-30T11:49:57;99513.09;;;7.34;100.00
18858;BME280;9558;50.178;8.370;2024-01-30T11:52:45;99527.97;;;7.42;100.00
18858;BME280;9558;50.178;8.370;2024-01-30T11:55:32;99525.16;;;7.45;100.00
18858;BME280;9558;50.178;8.370;2024-01-30T11:58:24;99522.66;;;7.55;100.00
18858;BME280;9558;50.178;8.370;2024-01-30T12:01:11;99533.66;;;7.57;100.00
18858;BME280;9558;50.178;8.370;2024-01-30T12:03:58;99528.03;;;7.63;100.00
18858;BME280;9558;50.178;8.370;2024-01-30T12:06:50;99528.25;;;7.60;100.00
18858;BME280;9558;50.178;8.370;2024-01-30T12:09:39;99516.88;;;7.63;100.00
18858;BME280;9558;50.178;8.370;2024-01-30T12:12:27;99519.34;;;7.64;100.00
18858;BME280;9558;50.178;8.370;2024-01-30T12:15:14;99515.56;;;7.68;100.00
18858;BME280;9558;50.178;8.370;2024-01-30T12:18:05;99517.91;;;7.71;100.00
18858;BME280;9558;50.178;8.370;2024-01-30T12:20:58;99514.34;;;7.84;100.00
18858;BME280;9558;50.178;8.370;2024-01-30T12:23:45;99512.09;;;7.90;100.00
18858;BME280;9558;50.178;8.370;2024-01-30T12:26:34;99515.88;;;8.07;100.00
18858;BME280;9558;50.178;8.370;2024-01-30T12:29:21;99508.06;;;8.19;100.00
18858;BME280;9558;50.178;8.370;2024-01-30T12:32:08;99512.59;;;8.26;100.00
18858;BME280;9558;50.178;8.370;2024-01-30T12:34:55;99505.94;;;8.24;98.06
18858;BME280;9558;50.178;8.370;2024-01-30T12:37:43;99508.75;;;8.42;100.00
18858;BME280;9558;50.178;8.370;2024-01-30T12:40:33;99499.19;;;8.54;100.00
18858;BME280;9558;50.178;8.370;2024-01-30T12:43:21;99503.16;;;8.58;100.00
18858;BME280;9558;50.178;8.370;2024-01-30T12:46:08;99500.75;;;8.66;100.00
18858;BME280;9558;50.178;8.370;2024-01-30T12:48:55;99493.69;;;8.68;99.87
18858;BME280;9558;50.178;8.370;2024-01-30T12:51:42;99494.34;;;8.70;97.98
18858;BME280;9558;50.178;8.370;2024-01-30T12:54:30;99488.56;;;8.78;99.88
18858;BME280;9558;50.178;8.370;2024-01-30T12:57:17;99496.16;;;8.79;98.51
18858;BME280;9558;50.178;8.370;2024-01-30T13:00:07;99489.81;;;8.84;97.79
18858;BME280;9558;50.178;8.370;2024-01-30T13:02:54;99486.28;;;8.85;97.68
18858;BME280;9558;50.178;8.370;2024-01-30T13:05:42;99483.69;;;8.85;98.26
18858;BME280;9558;50.178;8.370;2024-01-30T13:08:29;99481.53;;;8.90;95.96
18858;BME280;9558;50.178;8.370;2024-01-30T13:11:16;99475.81;;;8.86;96.38
18858;BME280;9558;50.178;8.370;2024-01-30T13:14:03;99488.84;;;8.85;96.21
18858;BME280;9558;50.178;8.370;2024-01-30T13:16:51;99483.56;;;8.86;96.27
18858;BME280;9558;50.178;8.370;2024-01-30T13:19:38;99474.31;;;8.84;96.23
18858;BME280;9558;50.178;8.370;2024-01-30T13:22:25;99486.28;;;8.85;95.42
18858;BME280;9558;50.178;8.370;2024-01-30T13:25:11;99499.41;;;8.81;95.45
18858;BME280;9558;50.178;8.370;2024-01-30T13:27:58;99489.09;;;8.81;95.96
18858;BME280;9558;50.178;8.370;2024-01-30T13:30:45;99481.75;;;8.77;95.48
18858;BME280;9558;50.178;8.370;2024-01-30T13:33:34;99488.81;;;8.75;95.55
18858;BME280;9558;50.178;8.370;2024-01-30T13:36:21;99493.31;;;8.82;96.64
18858;BME280;9558;50.178;8.370;2024-01-30T13:39:08;99493.31;;;8.82;97.42
18858;BME280;9558;50.178;8.370;2024-01-30T13:41:56;99479.34;;;8.85;97.78
18858;BME280;9558;50.178;8.370;2024-01-30T13:44:43;99482.91;;;8.94;97.04
18858;BME280;9558;50.178;8.370;2024-01-30T13:47:29;99481.00;;;8.96;97.87
18858;BME280;9558;50.178;8.370;2024-01-30T13:50:18;99494.59;;;8.98;98.37
18858;BME280;9558;50.178;8.370;2024-01-30T13:53:05;99499.91;;;9.06;97.37
18858;BME280;9558;50.178;8.370;2024-01-30T13:55:52;99494.91;;;9.05;96.95
18858;BME280;9558;50.178;8.370;2024-01-30T13:58:39;99483.06;;;9.02;97.58
18858;BME280;9558;50.178;8.370;2024-01-30T14:01:25;99492.69;;;9.00;97.14
18858;BME280;9558;50.178;8.370;2024-01-30T14:04:12;99488.50;;;8.99;96.49
18858;BME280;9558;50.178;8.370;2024-01-30T14:07:01;99495.53;;;8.97;97.30
18858;BME280;9558;50.178;8.370;2024-01-30T14:09:48;99496.38;;;8.97;98.12
18858;BME280;9558;50.178;8.370;2024-01-30T14:12:35;99494.59;;;8.98;98.27
18858;BME280;9558;50.178;8.370;2024-01-30T14:15:22;99500.69;;;8.97;98.00
18858;BME280;9558;50.178;8.370;2024-01-30T14:18:10;99501.91;;;8.93;98.11
18858;BME280;9558;50.178;8.370;2024-01-30T14:20:58;99491.84;;;8.90;97.87
18858;BME280;9558;50.178;8.370;2024-01-30T14:23:47;99496.59;;;8.85;97.12
18858;BME280;9558;50.178;8.370;2024-01-30T14:26:34;99498.63;;;8.81;98.11
18858;BME280;9558;50.178;8.370;2024-01-30T14:29:22;99497.09;;;8.78;97.37
18858;BME280;9558;50.178;8.370;2024-01-30T14:32:09;99495.06;;;8.72;97.89
18858;BME280;9558;50.178;8.370;2024-01-30T14:34:56;99496.94;;;8.70;97.69
18858;BME280;9558;50.178;8.370;2024-01-30T14:37:43;99506.84;;;8.65;96.63
18858;BME280;9558;50.178;8.370;2024-01-30T14:40:31;99504.09;;;8.57;96.25
18858;BME280;9558;50.178;8.370;2024-01-30T14:43:18;99508.84;;;8.52;96.84
18858;BME280;9558;50.178;8.370;2024-01-30T14:46:05;99502.44;;;8.46;97.92
18858;BME280;9558;50.178;8.370;2024-01-30T14:48:52;99511.19;;;8.43;97.86
18858;BME280;9558;50.178;8.370;2024-01-30T14:51:40;99510.38;;;8.43;98.25
18858;BME280;9558;50.178;8.370;2024-01-30T14:54:26;99509.69;;;8.41;98.33
18858;BME280;9558;50.178;8.370;2024-01-30T14:57:15;99511.94;;;8.34;98.90
18858;BME280;9558;50.178;8.370;2024-01-30T15:00:03;99522.28;;;8.34;99.12